Terminal Aerodrome Forecast
Issued by NWS Greer, SC

Home | Current Version | Previous Version | Text Only | Print | Product List | Glossary On
Versions: 1 2 3 4 5 6 7 8 9 10 11 12
000
FTUS42 KGSP 311736
TAFGSP
TAF
KGSP 311736Z 3118/0118 24006KT P6SM SCT250
     FM010000 20003KT P6SM BKN150
     FM011200 22006KT P6SM BKN090
     FM011500 21009KT P6SM SCT025 OVC070=

USA.gov is the U.S. government's official web portal to all federal, state and local government web resources and services.